sensor_id;sensor_type;location;lat;lon;timestamp;temperature;humidity
5258;DHT22;2651;51.594;9.928;2024-01-30T00:00:20;2.90;1.00
5258;DHT22;2651;51.594;9.928;2024-01-30T00:01:22;2.80;1.00
5258;DHT22;2651;51.594;9.928;2024-01-30T00:02:24;2.80;1.00
5258;DHT22;2651;51.594;9.928;2024-01-30T00:03:26;2.70;1.00
5258;DHT22;2651;51.594;9.928;2024-01-30T00:04:28;2.70;1.00
5258;DHT22;2651;51.594;9.928;2024-01-30T00:05:30;2.80;1.00
5258;DHT22;2651;51.594;9.928;2024-01-30T00:06:31;2.70;1.00
5258;DHT22;2651;51.594;9.928;2024-01-30T00:07:33;2.80;1.00
5258;DHT22;2651;51.594;9.928;2024-01-30T00:08:35;2.70;1.00
5258;DHT22;2651;51.594;9.928;2024-01-30T00:09:38;2.80;3.30
5258;DHT22;2651;51.594;9.928;2024-01-30T00:10:40;2.80;26.70
5258;DHT22;2651;51.594;9.928;2024-01-30T00:11:42;2.90;43.30
5258;DHT22;2651;51.594;9.928;2024-01-30T00:12:44;2.80;48.80
5258;DHT22;2651;51.594;9.928;2024-01-30T00:13:45;2.90;59.30
5258;DHT22;2651;51.594;9.928;2024-01-30T00:14:47;2.90;66.60
5258;DHT22;2651;51.594;9.928;2024-01-30T00:15:53;2.90;65.90
5258;DHT22;2651;51.594;9.928;2024-01-30T00:16:55;2.90;61.30
5258;DHT22;2651;51.594;9.928;2024-01-30T00:17:57;2.90;48.50
5258;DHT22;2651;51.594;9.928;2024-01-30T00:18:59;2.90;73.80
5258;DHT22;2651;51.594;9.928;2024-01-30T00:20:01;2.90;71.70
5258;DHT22;2651;51.594;9.928;2024-01-30T00:21:03;2.80;30.30
5258;DHT22;2651;51.594;9.928;2024-01-30T00:22:05;2.90;46.80
5258;DHT22;2651;51.594;9.928;2024-01-30T00:23:07;2.90;47.10
5258;DHT22;2651;51.594;9.928;2024-01-30T00:24:09;2.90;42.60
5258;DHT22;2651;51.594;9.928;2024-01-30T00:25:10;2.80;9.70
5258;DHT22;2651;51.594;9.928;2024-01-30T00:26:12;2.80;1.00
5258;DHT22;2651;51.594;9.928;2024-01-30T00:27:16;2.70;1.00
5258;DHT22;2651;51.594;9.928;2024-01-30T00:28:17;2.60;1.00
5258;DHT22;2651;51.594;9.928;2024-01-30T00:29:19;2.60;1.00
5258;DHT22;2651;51.594;9.928;2024-01-30T00:30:21;2.60;1.00
5258;DHT22;2651;51.594;9.928;2024-01-30T00:31:23;2.50;1.00
5258;DHT22;2651;51.594;9.928;2024-01-30T00:32:25;2.50;1.00
5258;DHT22;2651;51.594;9.928;2024-01-30T00:33:26;2.50;10.20
5258;DHT22;2651;51.594;9.928;2024-01-30T00:34:28;2.50;32.80
5258;DHT22;2651;51.594;9.928;2024-01-30T00:35:30;2.50;43.90
5258;DHT22;2651;51.594;9.928;2024-01-30T00:36:32;2.60;59.40
5258;DHT22;2651;51.594;9.928;2024-01-30T00:37:35;2.60;81.30
5258;DHT22;2651;51.594;9.928;2024-01-30T00:38:37;2.60;92.00
5258;DHT22;2651;51.594;9.928;2024-01-30T00:39:39;2.70;99.90
5258;DHT22;2651;51.594;9.928;2024-01-30T00:40:41;2.70;99.90
5258;DHT22;2651;51.594;9.928;2024-01-30T00:41:42;2.80;99.90
5258;DHT22;2651;51.594;9.928;2024-01-30T00:42:44;2.80;99.90
5258;DHT22;2651;51.594;9.928;2024-01-30T00:43:46;2.80;99.90
5258;DHT22;2651;51.594;9.928;2024-01-30T00:44:48;2.90;99.90
5258;DHT22;2651;51.594;9.928;2024-01-30T00:45:50;2.80;97.60
5258;DHT22;2651;51.594;9.928;2024-01-30T00:46:53;2.80;96.30
5258;DHT22;2651;51.594;9.928;2024-01-30T00:47:55;2.80;94.70
5258;DHT22;2651;51.594;9.928;2024-01-30T00:48:57;2.80;95.30
5258;DHT22;2651;51.594;9.928;2024-01-30T00:49:58;2.90;99.40
5258;DHT22;2651;51.594;9.928;2024-01-30T00:51:00;2.90;96.90
5258;DHT22;2651;51.594;9.928;2024-01-30T00:52:02;2.80;84.00
5258;DHT22;2651;51.594;9.928;2024-01-30T00:53:04;2.80;86.40
5258;DHT22;2651;51.594;9.928;2024-01-30T00:54:05;2.80;98.70
5258;DHT22;2651;51.594;9.928;2024-01-30T00:55:07;2.80;99.90
5258;DHT22;2651;51.594;9.928;2024-01-30T00:56:09;2.90;99.90
5258;DHT22;2651;51.594;9.928;2024-01-30T00:57:11;2.90;99.90
5258;DHT22;2651;51.594;9.928;2024-01-30T00:58:13;2.90;95.60
5258;DHT22;2651;51.594;9.928;2024-01-30T00:59:15;2.90;88.80
5258;DHT22;2651;51.594;9.928;2024-01-30T01:00:16;2.80;68.00
5258;DHT22;2651;51.594;9.928;2024-01-30T01:01:19;2.70;49.00
5258;DHT22;2651;51.594;9.928;2024-01-30T01:02:21;2.70;27.40
5258;DHT22;2651;51.594;9.928;2024-01-30T01:03:22;2.60;48.60
5258;DHT22;2651;51.594;9.928;2024-01-30T01:04:24;2.60;49.80
5258;DHT22;2651;51.594;9.928;2024-01-30T01:05:26;2.60;51.70
5258;DHT22;2651;51.594;9.928;2024-01-30T01:06:28;2.60;53.00
5258;DHT22;2651;51.594;9.928;2024-01-30T01:07:30;2.60;64.00
5258;DHT22;2651;51.594;9.928;2024-01-30T01:08:31;2.50;66.30
5258;DHT22;2651;51.594;9.928;2024-01-30T01:09:33;2.50;91.10
5258;DHT22;2651;51.594;9.928;2024-01-30T01:10:35;2.50;86.70
5258;DHT22;2651;51.594;9.928;2024-01-30T01:11:37;2.50;85.80
5258;DHT22;2651;51.594;9.928;2024-01-30T01:12:39;2.50;90.80
5258;DHT22;2651;51.594;9.928;2024-01-30T01:13:41;2.50;95.60
5258;DHT22;2651;51.594;9.928;2024-01-30T01:14:43;2.50;91.90
5258;DHT22;2651;51.594;9.928;2024-01-30T01:15:45;2.50;80.00
5258;DHT22;2651;51.594;9.928;2024-01-30T01:16:46;2.50;78.50
5258;DHT22;2651;51.594;9.928;2024-01-30T01:17:48;2.40;76.20
5258;DHT22;2651;51.594;9.928;2024-01-30T01:18:50;2.40;68.40
5258;DHT22;2651;51.594;9.928;2024-01-30T01:19:52;2.40;97.30
5258;DHT22;2651;51.594;9.928;2024-01-30T01:20:54;2.40;96.50
5258;DHT22;2651;51.594;9.928;2024-01-30T01:21:55;2.50;98.20
5258;DHT22;2651;51.594;9.928;2024-01-30T01:22:58;2.40;96.10
5258;DHT22;2651;51.594;9.928;2024-01-30T01:24:00;2.40;98.50
5258;DHT22;2651;51.594;9.928;2024-01-30T01:25:02;2.50;99.90
5258;DHT22;2651;51.594;9.928;2024-01-30T01:26:04;2.50;99.90
5258;DHT22;2651;51.594;9.928;2024-01-30T01:27:07;2.50;99.90
5258;DHT22;2651;51.594;9.928;2024-01-30T01:28:08;2.50;99.90
5258;DHT22;2651;51.594;9.928;2024-01-30T01:29:10;2.50;99.90
5258;DHT22;2651;51.594;9.928;2024-01-30T01:30:13;2.50;99.90
5258;DHT22;2651;51.594;9.928;2024-01-30T01:31:20;2.50;99.90
5258;DHT22;2651;51.594;9.928;2024-01-30T01:32:26;2.50;97.90
5258;DHT22;2651;51.594;9.928;2024-01-30T01:33:27;2.40;90.40
5258;DHT22;2651;51.594;9.928;2024-01-30T01:34:29;2.30;85.10
5258;DHT22;2651;51.594;9.928;2024-01-30T01:35:31;2.30;81.00
5258;DHT22;2651;51.594;9.928;2024-01-30T01:36:33;2.20;69.00
5258;DHT22;2651;51.594;9.928;2024-01-30T01:37:35;2.20;58.80
5258;DHT22;2651;51.594;9.928;2024-01-30T01:38:36;2.10;70.90
5258;DHT22;2651;51.594;9.928;2024-01-30T01:39:38;2.10;81.50
5258;DHT22;2651;51.594;9.928;2024-01-30T01:40:40;2.10;95.40
5258;DHT22;2651;51.594;9.928;2024-01-30T01:41:42;2.10;99.70
5258;DHT22;2651;51.594;9.928;2024-01-30T01:42:44;2.10;99.90
5258;DHT22;2651;51.594;9.928;2024-01-30T01:43:46;2.00;99.90
5258;DHT22;2651;51.594;9.928;2024-01-30T01:44:47;2.00;99.90
5258;DHT22;2651;51.594;9.928;2024-01-30T01:45:49;2.00;99.90
5258;DHT22;2651;51.594;9.928;2024-01-30T01:46:51;2.00;99.90
5258;DHT22;2651;51.594;9.928;2024-01-30T01:47:54;1.90;99.90
5258;DHT22;2651;51.594;9.928;2024-01-30T01:48:56;1.90;99.90
5258;DHT22;2651;51.594;9.928;2024-01-30T01:49:58;1.90;99.90
5258;DHT22;2651;51.594;9.928;2024-01-30T01:51:01;1.90;99.90
5258;DHT22;2651;51.594;9.928;2024-01-30T01:52:04;1.90;99.90
5258;DHT22;2651;51.594;9.928;2024-01-30T01:53:07;2.00;99.90
5258;DHT22;2651;51.594;9.928;2024-01-30T01:54:10;2.00;99.90
5258;DHT22;2651;51.594;9.928;2024-01-30T01:55:12;2.00;99.90
5258;DHT22;2651;51.594;9.928;2024-01-30T01:56:15;2.00;99.90
5258;DHT22;2651;51.594;9.928;2024-01-30T01:57:17;2.00;99.90
5258;DHT22;2651;51.594;9.928;2024-01-30T01:58:20;2.00;99.90
5258;DHT22;2651;51.594;9.928;2024-01-30T01:59:24;2.00;99.90
5258;DHT22;2651;51.594;9.928;2024-01-30T02:00:26;2.00;99.90
5258;DHT22;2651;51.594;9.928;2024-01-30T02:01:29;1.90;87.90
5258;DHT22;2651;51.594;9.928;2024-01-30T02:02:35;1.90;90.00
5258;DHT22;2651;51.594;9.928;2024-01-30T02:03:37;1.90;94.70
5258;DHT22;2651;51.594;9.928;2024-01-30T02:04:39;1.80;99.10
5258;DHT22;2651;51.594;9.928;2024-01-30T02:05:41;1.90;99.90
5258;DHT22;2651;51.594;9.928;2024-01-30T02:06:44;1.90;99.90
5258;DHT22;2651;51.594;9.928;2024-01-30T02:07:46;1.80;99.90
5258;DHT22;2651;51.594;9.928;2024-01-30T02:08:49;1.90;99.90
5258;DHT22;2651;51.594;9.928;2024-01-30T02:09:50;1.90;99.90
5258;DHT22;2651;51.594;9.928;2024-01-30T02:10:52;1.90;99.90
5258;DHT22;2651;51.594;9.928;2024-01-30T02:11:54;1.80;99.90
5258;DHT22;2651;51.594;9.928;2024-01-30T02:12:56;1.80;99.90
5258;DHT22;2651;51.594;9.928;2024-01-30T02:14:05;1.80;99.90
5258;DHT22;2651;51.594;9.928;2024-01-30T02:15:07;1.80;99.90
5258;DHT22;2651;51.594;9.928;2024-01-30T02:16:09;1.80;99.90
5258;DHT22;2651;51.594;9.928;2024-01-30T02:17:12;1.80;99.90
5258;DHT22;2651;51.594;9.928;2024-01-30T02:18:14;1.80;99.90
5258;DHT22;2651;51.594;9.928;2024-01-30T02:19:16;1.90;99.90
5258;DHT22;2651;51.594;9.928;2024-01-30T02:20:17;2.10;99.90
5258;DHT22;2651;51.594;9.928;2024-01-30T02:21:19;2.20;99.90
5258;DHT22;2651;51.594;9.928;2024-01-30T02:22:22;2.20;99.90
5258;DHT22;2651;51.594;9.928;2024-01-30T02:23:27;2.20;99.90
5258;DHT22;2651;51.594;9.928;2024-01-30T02:24:29;2.20;99.90
5258;DHT22;2651;51.594;9.928;2024-01-30T02:25:35;2.30;99.90
5258;DHT22;2651;51.594;9.928;2024-01-30T02:26:37;2.30;99.90
5258;DHT22;2651;51.594;9.928;2024-01-30T02:27:39;2.40;99.90
5258;DHT22;2651;51.594;9.928;2024-01-30T02:28:40;2.40;99.90
5258;DHT22;2651;51.594;9.928;2024-01-30T02:29:42;2.40;99.90
5258;DHT22;2651;51.594;9.928;2024-01-30T02:30:44;2.30;99.90
5258;DHT22;2651;51.594;9.928;2024-01-30T02:31:46;2.30;99.90
5258;DHT22;2651;51.594;9.928;2024-01-30T02:32:48;2.20;99.90
5258;DHT22;2651;51.594;9.928;2024-01-30T02:33:50;2.20;99.90
5258;DHT22;2651;51.594;9.928;2024-01-30T02:34:52;2.10;99.90
5258;DHT22;2651;51.594;9.928;2024-01-30T02:35:53;2.10;99.90
5258;DHT22;2651;51.594;9.928;2024-01-30T02:36:55;2.00;99.90
5258;DHT22;2651;51.594;9.928;2024-01-30T02:37:57;2.00;99.90
5258;DHT22;2651;51.594;9.928;2024-01-30T02:38:58;2.00;99.90
5258;DHT22;2651;51.594;9.928;2024-01-30T02:40:00;1.90;99.90
5258;DHT22;2651;51.594;9.928;2024-01-30T02:41:02;1.90;99.90
5258;DHT22;2651;51.594;9.928;2024-01-30T02:42:04;1.90;99.90
5258;DHT22;2651;51.594;9.928;2024-01-30T02:43:06;1.90;99.90
5258;DHT22;2651;51.594;9.928;2024-01-30T02:44:08;1.90;99.90
5258;DHT22;2651;51.594;9.928;2024-01-30T02:45:10;1.90;99.90
5258;DHT22;2651;51.594;9.928;2024-01-30T02:46:12;1.90;99.90
5258;DHT22;2651;51.594;9.928;2024-01-30T02:47:13;1.90;99.90
5258;DHT22;2651;51.594;9.928;2024-01-30T02:48:15;1.90;99.90
5258;DHT22;2651;51.594;9.928;2024-01-30T02:49:17;1.90;99.90
5258;DHT22;2651;51.594;9.928;2024-01-30T02:50:19;1.90;99.90
5258;DHT22;2651;51.594;9.928;2024-01-30T02:51:21;1.90;99.90
5258;DHT22;2651;51.594;9.928;2024-01-30T02:52:23;1.80;99.90
5258;DHT22;2651;51.594;9.928;2024-01-30T02:53:25;1.70;99.90
5258;DHT22;2651;51.594;9.928;2024-01-30T02:54:26;1.70;95.40
5258;DHT22;2651;51.594;9.928;2024-01-30T02:55:28;1.60;99.80
5258;DHT22;2651;51.594;9.928;2024-01-30T02:56:30;1.60;99.90
5258;DHT22;2651;51.594;9.928;2024-01-30T02:57:32;1.60;99.90
5258;DHT22;2651;51.594;9.928;2024-01-30T02:58:34;1.60;99.90
5258;DHT22;2651;51.594;9.928;2024-01-30T02:59:35;1.60;99.90
5258;DHT22;2651;51.594;9.928;2024-01-30T03:00:37;1.50;99.90
5258;DHT22;2651;51.594;9.928;2024-01-30T03:01:43;1.50;99.90
5258;DHT22;2651;51.594;9.928;2024-01-30T03:02:45;1.50;99.90
5258;DHT22;2651;51.594;9.928;2024-01-30T03:03:47;1.50;99.90
5258;DHT22;2651;51.594;9.928;2024-01-30T03:04:49;1.50;99.90
5258;DHT22;2651;51.594;9.928;2024-01-30T03:05:51;1.40;99.90
5258;DHT22;2651;51.594;9.928;2024-01-30T03:06:53;1.50;99.90
5258;DHT22;2651;51.594;9.928;2024-01-30T03:07:55;1.60;99.90
5258;DHT22;2651;51.594;9.928;2024-01-30T03:08:56;1.60;99.90
5258;DHT22;2651;51.594;9.928;2024-01-30T03:09:58;1.60;99.90
5258;DHT22;2651;51.594;9.928;2024-01-30T03:11:00;1.60;99.90
5258;DHT22;2651;51.594;9.928;2024-01-30T03:12:02;1.50;99.90
5258;DHT22;2651;51.594;9.928;2024-01-30T03:13:04;1.60;99.90
5258;DHT22;2651;51.594;9.928;2024-01-30T03:14:06;1.50;99.90
5258;DHT22;2651;51.594;9.928;2024-01-30T03:15:08;1.50;99.90
5258;DHT22;2651;51.594;9.928;2024-01-30T03:16:11;1.60;99.90
5258;DHT22;2651;51.594;9.928;2024-01-30T03:17:13;1.50;99.90
5258;DHT22;2651;51.594;9.928;2024-01-30T03:18:15;1.50;99.90
5258;DHT22;2651;51.594;9.928;2024-01-30T03:19:16;1.50;99.90
5258;DHT22;2651;51.594;9.928;2024-01-30T03:20:18;1.50;99.90
5258;DHT22;2651;51.594;9.928;2024-01-30T03:21:20;1.50;99.90
5258;DHT22;2651;51.594;9.928;2024-01-30T03:22:22;1.60;99.90
5258;DHT22;2651;51.594;9.928;2024-01-30T03:23:24;1.60;99.90
5258;DHT22;2651;51.594;9.928;2024-01-30T03:24:26;1.60;99.90
5258;DHT22;2651;51.594;9.928;2024-01-30T03:25:27;1.70;99.90
5258;DHT22;2651;51.594;9.928;2024-01-30T03:26:29;1.80;99.90
5258;DHT22;2651;51.594;9.928;2024-01-30T03:27:31;1.90;99.90
5258;DHT22;2651;51.594;9.928;2024-01-30T03:28:33;2.00;99.90
5258;DHT22;2651;51.594;9.928;2024-01-30T03:29:34;2.00;99.90
5258;DHT22;2651;51.594;9.928;2024-01-30T03:30:36;1.90;99.90
5258;DHT22;2651;51.594;9.928;2024-01-30T03:31:39;1.90;99.90
5258;DHT22;2651;51.594;9.928;2024-01-30T03:32:41;1.90;99.90
5258;DHT22;2651;51.594;9.928;2024-01-30T03:33:43;2.00;99.90
5258;DHT22;2651;51.594;9.928;2024-01-30T03:34:45;2.00;99.90
5258;DHT22;2651;51.594;9.928;2024-01-30T03:35:47;2.00;99.90
5258;DHT22;2651;51.594;9.928;2024-01-30T03:36:49;2.00;99.90
5258;DHT22;2651;51.594;9.928;2024-01-30T03:37:50;2.10;99.90
5258;DHT22;2651;51.594;9.928;2024-01-30T03:38:52;2.10;99.90
5258;DHT22;2651;51.594;9.928;2024-01-30T03:39:54;2.10;99.90
5258;DHT22;2651;51.594;9.928;2024-01-30T03:40:56;2.10;99.90
5258;DHT22;2651;51.594;9.928;2024-01-30T03:41:58;2.10;99.90
5258;DHT22;2651;51.594;9.928;2024-01-30T03:43:00;2.20;99.90
5258;DHT22;2651;51.594;9.928;2024-01-30T03:44:02;2.20;99.90
5258;DHT22;2651;51.594;9.928;2024-01-30T03:45:04;2.20;99.90
5258;DHT22;2651;51.594;9.928;2024-01-30T03:46:06;2.20;99.90
5258;DHT22;2651;51.594;9.928;2024-01-30T03:47:08;2.20;99.90
5258;DHT22;2651;51.594;9.928;2024-01-30T03:48:10;2.10;99.90
5258;DHT22;2651;51.594;9.928;2024-01-30T03:49:11;2.10;99.90
5258;DHT22;2651;51.594;9.928;2024-01-30T03:50:13;2.10;99.90
5258;DHT22;2651;51.594;9.928;2024-01-30T03:51:15;2.00;99.90
5258;DHT22;2651;51.594;9.928;2024-01-30T03:52:17;1.90;99.90
5258;DHT22;2651;51.594;9.928;2024-01-30T03:53:19;1.90;99.90
5258;DHT22;2651;51.594;9.928;2024-01-30T03:54:21;1.90;99.90
5258;DHT22;2651;51.594;9.928;2024-01-30T03:55:23;1.80;99.90
5258;DHT22;2651;51.594;9.928;2024-01-30T03:56:24;1.80;99.90
5258;DHT22;2651;51.594;9.928;2024-01-30T03:57:27;1.70;99.90
5258;DHT22;2651;51.594;9.928;2024-01-30T03:58:29;1.70;99.90
5258;DHT22;2651;51.594;9.928;2024-01-30T03:59:30;1.70;99.90
5258;DHT22;2651;51.594;9.928;2024-01-30T04:00:32;1.60;99.90
5258;DHT22;2651;51.594;9.928;2024-01-30T04:01:34;1.70;99.90
5258;DHT22;2651;51.594;9.928;2024-01-30T04:02:35;1.70;99.90
5258;DHT22;2651;51.594;9.928;2024-01-30T04:03:37;1.60;99.90
5258;DHT22;2651;51.594;9.928;2024-01-30T04:04:39;1.70;99.90
5258;DHT22;2651;51.594;9.928;2024-01-30T04:05:42;1.60;99.90
5258;DHT22;2651;51.594;9.928;2024-01-30T04:06:44;1.50;99.90
5258;DHT22;2651;51.594;9.928;2024-01-30T04:07:46;1.50;99.90
5258;DHT22;2651;51.594;9.928;2024-01-30T04:08:47;1.50;99.90
5258;DHT22;2651;51.594;9.928;2024-01-30T04:09:49;1.50;99.90
5258;DHT22;2651;51.594;9.928;2024-01-30T04:10:51;1.40;99.90
5258;DHT22;2651;51.594;9.928;2024-01-30T04:11:52;1.40;99.90
5258;DHT22;2651;51.594;9.928;2024-01-30T04:12:54;1.40;99.90
5258;DHT22;2651;51.594;9.928;2024-01-30T04:13:56;1.40;99.90
5258;DHT22;2651;51.594;9.928;2024-01-30T04:14:57;1.40;99.90
5258;DHT22;2651;51.594;9.928;2024-01-30T04:16:00;1.40;99.90
5258;DHT22;2651;51.594;9.928;2024-01-30T04:17:05;1.40;99.90
5258;DHT22;2651;51.594;9.928;2024-01-30T04:18:07;1.40;99.90
5258;DHT22;2651;51.594;9.928;2024-01-30T04:19:08;1.30;99.90
5258;DHT22;2651;51.594;9.928;2024-01-30T04:20:14;1.30;99.90
5258;DHT22;2651;51.594;9.928;2024-01-30T04:21:16;1.30;99.90
5258;DHT22;2651;51.594;9.928;2024-01-30T04:22:18;1.30;99.90
5258;DHT22;2651;51.594;9.928;2024-01-30T04:23:20;1.20;99.90
5258;DHT22;2651;51.594;9.928;2024-01-30T04:24:22;1.20;99.90
5258;DHT22;2651;51.594;9.928;2024-01-30T04:25:24;1.20;99.90
5258;DHT22;2651;51.594;9.928;2024-01-30T04:26:26;1.20;99.90
5258;DHT22;2651;51.594;9.928;2024-01-30T04:27:27;1.20;99.90
5258;DHT22;2651;51.594;9.928;2024-01-30T04:28:29;1.20;99.90
5258;DHT22;2651;51.594;9.928;2024-01-30T04:29:31;1.20;99.90
5258;DHT22;2651;51.594;9.928;2024-01-30T04:30:34;1.30;99.90
5258;DHT22;2651;51.594;9.928;2024-01-30T04:31:39;1.30;99.90
5258;DHT22;2651;51.594;9.928;2024-01-30T04:32:40;1.30;99.90
5258;DHT22;2651;51.594;9.928;2024-01-30T04:33:42;1.20;99.90
5258;DHT22;2651;51.594;9.928;2024-01-30T04:34:44;1.30;99.90
5258;DHT22;2651;51.594;9.928;2024-01-30T04:35:46;1.20;99.90
5258;DHT22;2651;51.594;9.928;2024-01-30T04:36:48;1.20;99.90
5258;DHT22;2651;51.594;9.928;2024-01-30T04:37:49;1.20;99.90
5258;DHT22;2651;51.594;9.928;2024-01-30T04:38:51;1.20;99.90
5258;DHT22;2651;51.594;9.928;2024-01-30T04:39:53;1.20;99.90
5258;DHT22;2651;51.594;9.928;2024-01-30T04:40:55;1.20;99.90
5258;DHT22;2651;51.594;9.928;2024-01-30T04:41:57;1.20;99.90
5258;DHT22;2651;51.594;9.928;2024-01-30T04:42:59;1.20;99.90
5258;DHT22;2651;51.594;9.928;2024-01-30T04:44:01;1.20;99.90
5258;DHT22;2651;51.594;9.928;2024-01-30T04:45:02;1.20;99.90
5258;DHT22;2651;51.594;9.928;2024-01-30T04:46:04;1.20;99.90
5258;DHT22;2651;51.594;9.928;2024-01-30T04:47:06;1.20;99.90
5258;DHT22;2651;51.594;9.928;2024-01-30T04:48:10;1.20;99.90
5258;DHT22;2651;51.594;9.928;2024-01-30T04:49:12;1.20;99.90
5258;DHT22;2651;51.594;9.928;2024-01-30T04:50:13;1.20;99.90
5258;DHT22;2651;51.594;9.928;2024-01-30T04:51:15;1.20;99.90
5258;DHT22;2651;51.594;9.928;2024-01-30T04:52:17;1.20;99.90
5258;DHT22;2651;51.594;9.928;2024-01-30T04:53:19;1.20;99.90
5258;DHT22;2651;51.594;9.928;2024-01-30T04:54:20;1.20;99.90
5258;DHT22;2651;51.594;9.928;2024-01-30T04:55:22;1.30;99.90
5258;DHT22;2651;51.594;9.928;2024-01-30T04:56:24;1.30;99.90
5258;DHT22;2651;51.594;9.928;2024-01-30T04:57:26;1.20;99.90
5258;DHT22;2651;51.594;9.928;2024-01-30T04:58:27;1.20;99.90
5258;DHT22;2651;51.594;9.928;2024-01-30T04:59:29;1.20;99.90
5258;DHT22;2651;51.594;9.928;2024-01-30T05:00:31;1.20;99.90
5258;DHT22;2651;51.594;9.928;2024-01-30T05:01:32;1.20;99.90
5258;DHT22;2651;51.594;9.928;2024-01-30T05:02:34;1.20;99.90
5258;DHT22;2651;51.594;9.928;2024-01-30T05:03:36;1.20;99.90
5258;DHT22;2651;51.594;9.928;2024-01-30T05:04:38;1.20;99.90
5258;DHT22;2651;51.594;9.928;2024-01-30T05:05:40;1.30;99.90
5258;DHT22;2651;51.594;9.928;2024-01-30T05:06:42;1.30;99.90
5258;DHT22;2651;51.594;9.928;2024-01-30T05:07:44;1.20;99.90
5258;DHT22;2651;51.594;9.928;2024-01-30T05:08:45;1.20;99.90
5258;DHT22;2651;51.594;9.928;2024-01-30T05:09:47;1.20;99.90
5258;DHT22;2651;51.594;9.928;2024-01-30T05:10:49;1.30;99.90
5258;DHT22;2651;51.594;9.928;2024-01-30T05:11:50;1.30;99.90
5258;DHT22;2651;51.594;9.928;2024-01-30T05:12:52;1.30;99.90
5258;DHT22;2651;51.594;9.928;2024-01-30T05:13:54;1.30;99.90
5258;DHT22;2651;51.594;9.928;2024-01-30T05:14:56;1.40;99.90
5258;DHT22;2651;51.594;9.928;2024-01-30T05:15:57;1.30;99.90
5258;DHT22;2651;51.594;9.928;2024-01-30T05:16:59;1.40;99.90
5258;DHT22;2651;51.594;9.928;2024-01-30T05:18:01;1.40;99.90
5258;DHT22;2651;51.594;9.928;2024-01-30T05:19:03;1.30;99.90
5258;DHT22;2651;51.594;9.928;2024-01-30T05:20:05;1.30;99.90
5258;DHT22;2651;51.594;9.928;2024-01-30T05:21:07;1.30;99.90
5258;DHT22;2651;51.594;9.928;2024-01-30T05:22:09;1.30;99.90
5258;DHT22;2651;51.594;9.928;2024-01-30T05:23:11;1.30;99.90
5258;DHT22;2651;51.594;9.928;2024-01-30T05:24:13;1.40;99.90
5258;DHT22;2651;51.594;9.928;2024-01-30T05:25:15;1.40;99.90
5258;DHT22;2651;51.594;9.928;2024-01-30T05:26:16;1.40;99.90
5258;DHT22;2651;51.594;9.928;2024-01-30T05:27:18;1.40;99.90
5258;DHT22;2651;51.594;9.928;2024-01-30T05:28:20;1.40;99.90
5258;DHT22;2651;51.594;9.928;2024-01-30T05:29:22;1.30;99.90
5258;DHT22;2651;51.594;9.928;2024-01-30T05:30:23;1.30;99.90
5258;DHT22;2651;51.594;9.928;2024-01-30T05:31:25;1.40;99.90
5258;DHT22;2651;51.594;9.928;2024-01-30T05:32:29;1.30;99.90
5258;DHT22;2651;51.594;9.928;2024-01-30T05:33:30;1.30;99.90
5258;DHT22;2651;51.594;9.928;2024-01-30T05:34:32;1.30;99.90
5258;DHT22;2651;51.594;9.928;2024-01-30T05:35:34;1.20;99.90
5258;DHT22;2651;51.594;9.928;2024-01-30T05:36:36;1.20;99.90
5258;DHT22;2651;51.594;9.928;2024-01-30T05:37:38;1.20;99.90
5258;DHT22;2651;51.594;9.928;2024-01-30T05:38:39;1.20;99.90
5258;DHT22;2651;51.594;9.928;2024-01-30T05:39:41;1.20;99.90
5258;DHT22;2651;51.594;9.928;2024-01-30T05:40:43;1.20;99.90
5258;DHT22;2651;51.594;9.928;2024-01-30T05:41:45;1.20;99.90
5258;DHT22;2651;51.594;9.928;2024-01-30T05:42:47;1.20;99.90
5258;DHT22;2651;51.594;9.928;2024-01-30T05:43:49;1.20;99.90
5258;DHT22;2651;51.594;9.928;2024-01-30T05:44:51;1.30;99.90
5258;DHT22;2651;51.594;9.928;2024-01-30T05:45:53;1.20;99.90
5258;DHT22;2651;51.594;9.928;2024-01-30T05:46:54;1.30;99.90
5258;DHT22;2651;51.594;9.928;2024-01-30T05:47:56;1.30;99.90
5258;DHT22;2651;51.594;9.928;2024-01-30T05:48:58;1.30;99.90
5258;DHT22;2651;51.594;9.928;2024-01-30T05:49:59;1.20;99.90
5258;DHT22;2651;51.594;9.928;2024-01-30T05:51:02;1.30;99.90
5258;DHT22;2651;51.594;9.928;2024-01-30T05:52:05;1.30;99.90
5258;DHT22;2651;51.594;9.928;2024-01-30T05:53:07;1.30;99.90
5258;DHT22;2651;51.594;9.928;2024-01-30T05:54:09;1.30;99.90
5258;DHT22;2651;51.594;9.928;2024-01-30T05:55:11;1.40;99.90
5258;DHT22;2651;51.594;9.928;2024-01-30T05:56:14;1.40;99.90
5258;DHT22;2651;51.594;9.928;2024-01-30T05:57:15;1.40;99.90
5258;DHT22;2651;51.594;9.928;2024-01-30T05:58:17;1.40;99.90
5258;DHT22;2651;51.594;9.928;2024-01-30T05:59:19;1.40;99.90
5258;DHT22;2651;51.594;9.928;2024-01-30T06:00:20;1.40;99.90
5258;DHT22;2651;51.594;9.928;2024-01-30T06:01:22;1.50;99.90
5258;DHT22;2651;51.594;9.928;2024-01-30T06:02:24;1.50;99.90
5258;DHT22;2651;51.594;9.928;2024-01-30T06:03:25;1.50;99.90
5258;DHT22;2651;51.594;9.928;2024-01-30T06:04:27;1.50;99.90
5258;DHT22;2651;51.594;9.928;2024-01-30T06:05:29;1.50;99.90
5258;DHT22;2651;51.594;9.928;2024-01-30T06:06:31;1.60;99.90
5258;DHT22;2651;51.594;9.928;2024-01-30T06:07:32;1.60;99.90
5258;DHT22;2651;51.594;9.928;2024-01-30T06:08:37;1.60;99.90
5258;DHT22;2651;51.594;9.928;2024-01-30T06:09:40;1.60;99.90
5258;DHT22;2651;51.594;9.928;2024-01-30T06:10:43;1.60;99.90
5258;DHT22;2651;51.594;9.928;2024-01-30T06:11:45;1.60;99.90
5258;DHT22;2651;51.594;9.928;2024-01-30T06:12:46;1.50;99.90
5258;DHT22;2651;51.594;9.928;2024-01-30T06:13:49;1.50;99.90
5258;DHT22;2651;51.594;9.928;2024-01-30T06:14:51;1.50;99.90
5258;DHT22;2651;51.594;9.928;2024-01-30T06:15:55;1.40;99.90
5258;DHT22;2651;51.594;9.928;2024-01-30T06:16:57;1.40;99.90
5258;DHT22;2651;51.594;9.928;2024-01-30T06:17:59;1.40;99.90
5258;DHT22;2651;51.594;9.928;2024-01-30T06:19:01;1.40;99.90
5258;DHT22;2651;51.594;9.928;2024-01-30T06:20:03;1.30;99.90
5258;DHT22;2651;51.594;9.928;2024-01-30T06:21:05;1.30;99.90
5258;DHT22;2651;51.594;9.928;2024-01-30T06:22:08;1.30;99.90
5258;DHT22;2651;51.594;9.928;2024-01-30T06:23:10;1.30;99.90
5258;DHT22;2651;51.594;9.928;2024-01-30T06:24:12;1.30;99.90
5258;DHT22;2651;51.594;9.928;2024-01-30T06:25:13;1.30;99.90
5258;DHT22;2651;51.594;9.928;2024-01-30T06:26:15;1.30;99.90
5258;DHT22;2651;51.594;9.928;2024-01-30T06:27:17;1.30;99.90
5258;DHT22;2651;51.594;9.928;2024-01-30T06:28:19;1.30;99.90
5258;DHT22;2651;51.594;9.928;2024-01-30T06:29:21;1.30;99.90
5258;DHT22;2651;51.594;9.928;2024-01-30T06:30:22;1.30;99.90
5258;DHT22;2651;51.594;9.928;2024-01-30T06:31:24;1.30;99.90
5258;DHT22;2651;51.594;9.928;2024-01-30T06:32:26;1.20;99.90
5258;DHT22;2651;51.594;9.928;2024-01-30T06:33:29;1.30;99.90
5258;DHT22;2651;51.594;9.928;2024-01-30T06:34:31;1.20;99.90
5258;DHT22;2651;51.594;9.928;2024-01-30T06:35:32;1.20;99.90
5258;DHT22;2651;51.594;9.928;2024-01-30T06:36:34;1.20;99.90
5258;DHT22;2651;51.594;9.928;2024-01-30T06:37:36;1.30;99.90
5258;DHT22;2651;51.594;9.928;2024-01-30T06:38:38;1.30;99.90
5258;DHT22;2651;51.594;9.928;2024-01-30T06:39:39;1.40;99.90
5258;DHT22;2651;51.594;9.928;2024-01-30T06:40:42;1.40;99.90
5258;DHT22;2651;51.594;9.928;2024-01-30T06:41:43;1.50;99.90
5258;DHT22;2651;51.594;9.928;2024-01-30T06:42:47;1.50;99.90
5258;DHT22;2651;51.594;9.928;2024-01-30T06:43:49;1.60;99.90
5258;DHT22;2651;51.594;9.928;2024-01-30T06:44:51;1.60;99.90
5258;DHT22;2651;51.594;9.928;2024-01-30T06:45:53;1.60;99.90
5258;DHT22;2651;51.594;9.928;2024-01-30T06:46:54;1.70;99.90
5258;DHT22;2651;51.594;9.928;2024-01-30T06:47:56;1.70;99.90
5258;DHT22;2651;51.594;9.928;2024-01-30T06:48:58;1.70;99.90
5258;DHT22;2651;51.594;9.928;2024-01-30T06:50:00;1.80;99.90
5258;DHT22;2651;51.594;9.928;2024-01-30T06:51:03;1.90;99.90
5258;DHT22;2651;51.594;9.928;2024-01-30T06:52:05;1.90;99.90